sensor_id;sensor_type;location;lat;lon;timestamp;P1;durP1;ratioP1;P2;durP2;ratioP2
67749;SDS011;54550;48.838;8.828;2023-05-10T00:01:07;0.80;;;0.50;;
67749;SDS011;54550;48.838;8.828;2023-05-10T00:03:33;0.70;;;0.33;;
67749;SDS011;54550;48.838;8.828;2023-05-10T00:05:58;0.80;;;0.40;;
67749;SDS011;54550;48.838;8.828;2023-05-10T00:08:24;0.70;;;0.40;;
67749;SDS011;54550;48.838;8.828;2023-05-10T00:10:49;0.70;;;0.30;;
67749;SDS011;54550;48.838;8.828;2023-05-10T00:13:15;0.70;;;0.30;;
67749;SDS011;54550;48.838;8.828;2023-05-10T00:15:41;0.90;;;0.70;;
67749;SDS011;54550;48.838;8.828;2023-05-10T00:18:06;0.70;;;0.30;;
67749;SDS011;54550;48.838;8.828;2023-05-10T00:20:32;0.77;;;0.40;;
67749;SDS011;54550;48.838;8.828;2023-05-10T00:22:58;0.70;;;0.30;;
67749;SDS011;54550;48.838;8.828;2023-05-10T00:25:23;0.70;;;0.30;;
67749;SDS011;54550;48.838;8.828;2023-05-10T00:27:49;0.70;;;0.30;;
67749;SDS011;54550;48.838;8.828;2023-05-10T00:30:14;0.80;;;0.40;;
67749;SDS011;54550;48.838;8.828;2023-05-10T00:32:40;0.77;;;0.53;;
67749;SDS011;54550;48.838;8.828;2023-05-10T00:35:06;0.80;;;0.50;;
67749;SDS011;54550;48.838;8.828;2023-05-10T00:37:32;0.77;;;0.50;;
67749;SDS011;54550;48.838;8.828;2023-05-10T00:39:58;0.70;;;0.37;;
67749;SDS011;54550;48.838;8.828;2023-05-10T00:42:23;1.00;;;0.57;;
67749;SDS011;54550;48.838;8.828;2023-05-10T00:44:49;0.80;;;0.50;;
67749;SDS011;54550;48.838;8.828;2023-05-10T00:47:15;0.93;;;0.70;;
67749;SDS011;54550;48.838;8.828;2023-05-10T00:49:41;0.80;;;0.70;;
67749;SDS011;54550;48.838;8.828;2023-05-10T00:52:08;1.10;;;0.70;;
67749;SDS011;54550;48.838;8.828;2023-05-10T00:54:34;1.00;;;0.70;;
67749;SDS011;54550;48.838;8.828;2023-05-10T00:56:59;0.73;;;0.43;;
67749;SDS011;54550;48.838;8.828;2023-05-10T00:59:25;0.80;;;0.60;;
67749;SDS011;54550;48.838;8.828;2023-05-10T01:01:50;0.70;;;0.40;;
67749;SDS011;54550;48.838;8.828;2023-05-10T01:04:17;0.93;;;0.67;;
67749;SDS011;54550;48.838;8.828;2023-05-10T01:06:44;0.80;;;0.50;;
67749;SDS011;54550;48.838;8.828;2023-05-10T01:09:10;1.07;;;0.80;;
67749;SDS011;54550;48.838;8.828;2023-05-10T01:11:37;1.10;;;0.60;;
67749;SDS011;54550;48.838;8.828;2023-05-10T01:14:04;0.80;;;0.60;;
67749;SDS011;54550;48.838;8.828;2023-05-10T01:16:32;1.50;;;1.37;;
67749;SDS011;54550;48.838;8.828;2023-05-10T01:19:26;0.70;;;0.30;;
67749;SDS011;54550;48.838;8.828;2023-05-10T01:25:03;1.00;;;0.87;;
67749;SDS011;54550;48.838;8.828;2023-05-10T01:28:04;0.97;;;0.60;;
67749;SDS011;54550;48.838;8.828;2023-05-10T01:33:24;0.93;;;0.80;;
67749;SDS011;54550;48.838;8.828;2023-05-10T01:35:59;0.70;;;0.40;;
67749;SDS011;54550;48.838;8.828;2023-05-10T01:38:40;0.80;;;0.50;;
67749;SDS011;54550;48.838;8.828;2023-05-10T01:41:24;0.93;;;0.50;;
67749;SDS011;54550;48.838;8.828;2023-05-10T01:46:52;0.90;;;0.50;;
67749;SDS011;54550;48.838;8.828;2023-05-10T01:49:24;0.80;;;0.50;;
67749;SDS011;54550;48.838;8.828;2023-05-10T01:51:53;2.30;;;0.50;;
67749;SDS011;54550;48.838;8.828;2023-05-10T01:54:21;0.93;;;0.57;;
67749;SDS011;54550;48.838;8.828;2023-05-10T01:56:50;1.00;;;0.80;;
67749;SDS011;54550;48.838;8.828;2023-05-10T01:59:20;0.90;;;0.80;;
67749;SDS011;54550;48.838;8.828;2023-05-10T02:01:47;2.57;;;1.10;;
67749;SDS011;54550;48.838;8.828;2023-05-10T02:04:16;1.20;;;1.10;;
67749;SDS011;54550;48.838;8.828;2023-05-10T02:06:44;1.50;;;1.17;;
67749;SDS011;54550;48.838;8.828;2023-05-10T02:09:11;1.27;;;1.13;;
67749;SDS011;54550;48.838;8.828;2023-05-10T02:11:38;2.47;;;1.57;;
67749;SDS011;54550;48.838;8.828;2023-05-10T02:14:05;0.93;;;0.80;;
67749;SDS011;54550;48.838;8.828;2023-05-10T02:16:34;1.20;;;1.10;;
67749;SDS011;54550;48.838;8.828;2023-05-10T02:19:01;1.60;;;1.27;;
67749;SDS011;54550;48.838;8.828;2023-05-10T02:21:28;1.00;;;0.70;;
67749;SDS011;54550;48.838;8.828;2023-05-10T02:23:55;1.30;;;1.20;;
67749;SDS011;54550;48.838;8.828;2023-05-10T02:26:23;1.97;;;1.37;;
67749;SDS011;54550;48.838;8.828;2023-05-10T02:28:50;1.30;;;0.83;;
67749;SDS011;54550;48.838;8.828;2023-05-10T02:31:16;1.30;;;0.80;;
67749;SDS011;54550;48.838;8.828;2023-05-10T02:33:43;2.50;;;1.97;;
67749;SDS011;54550;48.838;8.828;2023-05-10T02:36:10;3.10;;;2.80;;
67749;SDS011;54550;48.838;8.828;2023-05-10T02:38:38;3.77;;;2.37;;
67749;SDS011;54550;48.838;8.828;2023-05-10T02:41:04;1.57;;;1.47;;
67749;SDS011;54550;48.838;8.828;2023-05-10T02:43:31;1.10;;;1.00;;
67749;SDS011;54550;48.838;8.828;2023-05-10T02:45:58;2.57;;;2.37;;
67749;SDS011;54550;48.838;8.828;2023-05-10T02:48:23;1.63;;;1.53;;
67749;SDS011;54550;48.838;8.828;2023-05-10T02:50:49;1.43;;;1.30;;
67749;SDS011;54550;48.838;8.828;2023-05-10T02:53:23;2.50;;;2.30;;
67749;SDS011;54550;48.838;8.828;2023-05-10T02:55:59;1.20;;;1.10;;
67749;SDS011;54550;48.838;8.828;2023-05-10T02:58:29;1.17;;;1.07;;
67749;SDS011;54550;48.838;8.828;2023-05-10T03:00:54;1.53;;;1.20;;
67749;SDS011;54550;48.838;8.828;2023-05-10T03:03:20;2.17;;;1.63;;
67749;SDS011;54550;48.838;8.828;2023-05-10T03:05:46;2.67;;;1.57;;
67749;SDS011;54550;48.838;8.828;2023-05-10T03:08:11;1.10;;;1.00;;
67749;SDS011;54550;48.838;8.828;2023-05-10T03:10:39;1.57;;;1.47;;
67749;SDS011;54550;48.838;8.828;2023-05-10T03:13:14;2.57;;;1.73;;
67749;SDS011;54550;48.838;8.828;2023-05-10T03:15:55;2.03;;;1.40;;
67749;SDS011;54550;48.838;8.828;2023-05-10T03:18:37;1.50;;;1.10;;
67749;SDS011;54550;48.838;8.828;2023-05-10T03:21:12;1.30;;;1.00;;
67749;SDS011;54550;48.838;8.828;2023-05-10T03:23:43;1.13;;;0.93;;
67749;SDS011;54550;48.838;8.828;2023-05-10T03:26:13;1.80;;;1.37;;
67749;SDS011;54550;48.838;8.828;2023-05-10T03:28:42;1.90;;;1.60;;
67749;SDS011;54550;48.838;8.828;2023-05-10T03:31:09;1.57;;;1.20;;
67749;SDS011;54550;48.838;8.828;2023-05-10T03:33:35;1.80;;;1.20;;
67749;SDS011;54550;48.838;8.828;2023-05-10T03:36:00;1.10;;;0.93;;
67749;SDS011;54550;48.838;8.828;2023-05-10T03:38:26;1.57;;;1.20;;
67749;SDS011;54550;48.838;8.828;2023-05-10T03:40:51;1.87;;;0.60;;
67749;SDS011;54550;48.838;8.828;2023-05-10T03:43:17;1.40;;;1.30;;
67749;SDS011;54550;48.838;8.828;2023-05-10T03:45:42;2.17;;;1.27;;
67749;SDS011;54550;48.838;8.828;2023-05-10T03:48:08;1.27;;;1.17;;
67749;SDS011;54550;48.838;8.828;2023-05-10T03:50:33;0.90;;;0.70;;
67749;SDS011;54550;48.838;8.828;2023-05-10T03:52:59;1.13;;;0.73;;
67749;SDS011;54550;48.838;8.828;2023-05-10T03:55:24;0.97;;;0.63;;
67749;SDS011;54550;48.838;8.828;2023-05-10T03:57:50;1.53;;;0.70;;
67749;SDS011;54550;48.838;8.828;2023-05-10T04:00:16;0.80;;;0.60;;
67749;SDS011;54550;48.838;8.828;2023-05-10T04:02:41;1.30;;;1.00;;
67749;SDS011;54550;48.838;8.828;2023-05-10T04:05:07;1.50;;;0.73;;
67749;SDS011;54550;48.838;8.828;2023-05-10T04:07:33;1.60;;;1.27;;
67749;SDS011;54550;48.838;8.828;2023-05-10T04:09:59;1.17;;;0.97;;
67749;SDS011;54550;48.838;8.828;2023-05-10T04:12:24;1.03;;;0.93;;
67749;SDS011;54550;48.838;8.828;2023-05-10T04:14:50;3.90;;;0.73;;
67749;SDS011;54550;48.838;8.828;2023-05-10T04:17:15;1.70;;;0.77;;
67749;SDS011;54550;48.838;8.828;2023-05-10T04:19:41;1.30;;;0.70;;
67749;SDS011;54550;48.838;8.828;2023-05-10T04:22:07;3.93;;;1.23;;
67749;SDS011;54550;48.838;8.828;2023-05-10T04:24:32;1.30;;;1.20;;
67749;SDS011;54550;48.838;8.828;2023-05-10T04:26:58;8.13;;;1.40;;
67749;SDS011;54550;48.838;8.828;2023-05-10T04:29:23;3.30;;;2.17;;
67749;SDS011;54550;48.838;8.828;2023-05-10T04:31:49;3.87;;;1.93;;
67749;SDS011;54550;48.838;8.828;2023-05-10T04:34:15;3.77;;;2.23;;
67749;SDS011;54550;48.838;8.828;2023-05-10T04:36:41;2.17;;;1.33;;
67749;SDS011;54550;48.838;8.828;2023-05-10T04:39:06;2.17;;;1.10;;
67749;SDS011;54550;48.838;8.828;2023-05-10T04:41:32;1.67;;;1.57;;
67749;SDS011;54550;48.838;8.828;2023-05-10T04:43:57;2.00;;;1.90;;
67749;SDS011;54550;48.838;8.828;2023-05-10T04:46:23;2.77;;;2.50;;
67749;SDS011;54550;48.838;8.828;2023-05-10T04:48:48;2.70;;;2.03;;
67749;SDS011;54550;48.838;8.828;2023-05-10T04:51:14;1.70;;;1.57;;
67749;SDS011;54550;48.838;8.828;2023-05-10T04:53:40;1.63;;;1.07;;
67749;SDS011;54550;48.838;8.828;2023-05-10T04:56:05;1.43;;;1.33;;
67749;SDS011;54550;48.838;8.828;2023-05-10T04:58:31;11.63;;;10.07;;
67749;SDS011;54550;48.838;8.828;2023-05-10T05:00:57;9.10;;;8.20;;
67749;SDS011;54550;48.838;8.828;2023-05-10T05:03:29;6.17;;;5.67;;
67749;SDS011;54550;48.838;8.828;2023-05-10T05:05:54;3.70;;;3.43;;
67749;SDS011;54550;48.838;8.828;2023-05-10T05:08:20;3.00;;;2.40;;
67749;SDS011;54550;48.838;8.828;2023-05-10T05:10:45;2.60;;;2.43;;
67749;SDS011;54550;48.838;8.828;2023-05-10T05:13:12;4.43;;;4.00;;
67749;SDS011;54550;48.838;8.828;2023-05-10T05:15:38;6.20;;;5.60;;
67749;SDS011;54550;48.838;8.828;2023-05-10T05:18:03;2.77;;;2.57;;
67749;SDS011;54550;48.838;8.828;2023-05-10T05:20:31;3.67;;;3.27;;
67749;SDS011;54550;48.838;8.828;2023-05-10T05:22:58;2.17;;;2.07;;
67749;SDS011;54550;48.838;8.828;2023-05-10T05:25:23;5.47;;;5.07;;
67749;SDS011;54550;48.838;8.828;2023-05-10T05:27:49;2.60;;;2.40;;
67749;SDS011;54550;48.838;8.828;2023-05-10T05:30:15;0.83;;;0.60;;
67749;SDS011;54550;48.838;8.828;2023-05-10T05:32:40;2.63;;;2.37;;
67749;SDS011;54550;48.838;8.828;2023-05-10T05:35:06;2.60;;;2.40;;
67749;SDS011;54550;48.838;8.828;2023-05-10T05:37:32;2.10;;;1.97;;
67749;SDS011;54550;48.838;8.828;2023-05-10T05:39:57;2.33;;;2.03;;
67749;SDS011;54550;48.838;8.828;2023-05-10T05:42:23;1.27;;;1.17;;
67749;SDS011;54550;48.838;8.828;2023-05-10T05:44:48;1.47;;;1.37;;
67749;SDS011;54550;48.838;8.828;2023-05-10T05:47:14;1.47;;;1.30;;
67749;SDS011;54550;48.838;8.828;2023-05-10T05:49:39;1.70;;;1.60;;
67749;SDS011;54550;48.838;8.828;2023-05-10T05:52:05;1.07;;;0.97;;
67749;SDS011;54550;48.838;8.828;2023-05-10T05:54:31;1.83;;;1.63;;
67749;SDS011;54550;48.838;8.828;2023-05-10T05:56:57;3.00;;;2.60;;
67749;SDS011;54550;48.838;8.828;2023-05-10T05:59:23;1.53;;;1.20;;
67749;SDS011;54550;48.838;8.828;2023-05-10T06:01:49;3.43;;;1.20;;
67749;SDS011;54550;48.838;8.828;2023-05-10T06:04:15;1.27;;;1.17;;
67749;SDS011;54550;48.838;8.828;2023-05-10T06:06:41;1.00;;;0.90;;
67749;SDS011;54550;48.838;8.828;2023-05-10T06:09:07;3.40;;;1.07;;
67749;SDS011;54550;48.838;8.828;2023-05-10T06:11:33;0.90;;;0.90;;
67749;SDS011;54550;48.838;8.828;2023-05-10T06:13:59;1.27;;;0.93;;
67749;SDS011;54550;48.838;8.828;2023-05-10T06:16:25;2.33;;;1.90;;
67749;SDS011;54550;48.838;8.828;2023-05-10T06:18:52;1.27;;;1.17;;
67749;SDS011;54550;48.838;8.828;2023-05-10T06:21:18;1.67;;;1.30;;
67749;SDS011;54550;48.838;8.828;2023-05-10T06:23:44;0.80;;;0.57;;
67749;SDS011;54550;48.838;8.828;2023-05-10T06:26:09;0.93;;;0.50;;
67749;SDS011;54550;48.838;8.828;2023-05-10T06:28:35;0.97;;;0.53;;
67749;SDS011;54550;48.838;8.828;2023-05-10T06:31:03;0.90;;;0.47;;
67749;SDS011;54550;48.838;8.828;2023-05-10T06:33:29;0.97;;;0.60;;
67749;SDS011;54550;48.838;8.828;2023-05-10T06:35:54;1.13;;;0.53;;
67749;SDS011;54550;48.838;8.828;2023-05-10T06:38:20;1.33;;;1.23;;
67749;SDS011;54550;48.838;8.828;2023-05-10T06:40:45;0.90;;;0.60;;
67749;SDS011;54550;48.838;8.828;2023-05-10T06:43:11;0.80;;;0.50;;
67749;SDS011;54550;48.838;8.828;2023-05-10T06:45:36;1.10;;;0.57;;
67749;SDS011;54550;48.838;8.828;2023-05-10T06:48:02;0.90;;;0.60;;
67749;SDS011;54550;48.838;8.828;2023-05-10T06:50:28;1.00;;;0.60;;
67749;SDS011;54550;48.838;8.828;2023-05-10T06:52:53;1.73;;;0.50;;
67749;SDS011;54550;48.838;8.828;2023-05-10T06:55:20;1.00;;;0.63;;
67749;SDS011;54550;48.838;8.828;2023-05-10T06:57:46;0.80;;;0.40;;
67749;SDS011;54550;48.838;8.828;2023-05-10T07:00:12;1.20;;;0.90;;
67749;SDS011;54550;48.838;8.828;2023-05-10T07:02:38;0.70;;;0.40;;
67749;SDS011;54550;48.838;8.828;2023-05-10T07:05:04;1.10;;;0.50;;
67749;SDS011;54550;48.838;8.828;2023-05-10T07:07:30;1.10;;;0.70;;
67749;SDS011;54550;48.838;8.828;2023-05-10T07:09:56;0.70;;;0.30;;
67749;SDS011;54550;48.838;8.828;2023-05-10T07:12:22;0.80;;;0.60;;
67749;SDS011;54550;48.838;8.828;2023-05-10T07:14:51;1.40;;;0.60;;
67749;SDS011;54550;48.838;8.828;2023-05-10T07:17:17;3.93;;;0.40;;
67749;SDS011;54550;48.838;8.828;2023-05-10T07:19:42;1.00;;;0.50;;
67749;SDS011;54550;48.838;8.828;2023-05-10T07:22:08;0.70;;;0.30;;
67749;SDS011;54550;48.838;8.828;2023-05-10T07:24:34;0.80;;;0.40;;
67749;SDS011;54550;48.838;8.828;2023-05-10T07:27:00;0.70;;;0.33;;
67749;SDS011;54550;48.838;8.828;2023-05-10T07:29:25;0.90;;;0.60;;
67749;SDS011;54550;48.838;8.828;2023-05-10T07:31:51;0.70;;;0.40;;
67749;SDS011;54550;48.838;8.828;2023-05-10T07:34:17;1.00;;;0.70;;
67749;SDS011;54550;48.838;8.828;2023-05-10T07:36:42;0.80;;;0.60;;
67749;SDS011;54550;48.838;8.828;2023-05-10T07:39:08;0.80;;;0.47;;
67749;SDS011;54550;48.838;8.828;2023-05-10T07:41:34;1.53;;;0.43;;
67749;SDS011;54550;48.838;8.828;2023-05-10T07:43:59;0.70;;;0.43;;
67749;SDS011;54550;48.838;8.828;2023-05-10T07:46:25;0.90;;;0.40;;
67749;SDS011;54550;48.838;8.828;2023-05-10T07:48:51;0.80;;;0.30;;
67749;SDS011;54550;48.838;8.828;2023-05-10T07:51:16;0.90;;;0.50;;
67749;SDS011;54550;48.838;8.828;2023-05-10T07:53:42;1.10;;;0.50;;
67749;SDS011;54550;48.838;8.828;2023-05-10T07:58:45;1.00;;;0.70;;
67749;SDS011;54550;48.838;8.828;2023-05-10T08:01:11;0.70;;;0.30;;
67749;SDS011;54550;48.838;8.828;2023-05-10T08:03:36;0.70;;;0.40;;
67749;SDS011;54550;48.838;8.828;2023-05-10T08:06:02;0.70;;;0.30;;
67749;SDS011;54550;48.838;8.828;2023-05-10T08:08:28;1.13;;;0.40;;
67749;SDS011;54550;48.838;8.828;2023-05-10T08:10:53;0.80;;;0.47;;
67749;SDS011;54550;48.838;8.828;2023-05-10T08:13:19;1.10;;;0.50;;
67749;SDS011;54550;48.838;8.828;2023-05-10T08:15:44;0.70;;;0.30;;
67749;SDS011;54550;48.838;8.828;2023-05-10T08:18:11;0.70;;;0.40;;
67749;SDS011;54550;48.838;8.828;2023-05-10T08:20:36;0.70;;;0.47;;
67749;SDS011;54550;48.838;8.828;2023-05-10T08:23:02;0.80;;;0.40;;
67749;SDS011;54550;48.838;8.828;2023-05-10T08:25:27;0.70;;;0.23;;
67749;SDS011;54550;48.838;8.828;2023-05-10T08:27:53;0.70;;;0.37;;
67749;SDS011;54550;48.838;8.828;2023-05-10T08:30:18;0.80;;;0.40;;
67749;SDS011;54550;48.838;8.828;2023-05-10T08:32:44;0.70;;;0.30;;
67749;SDS011;54550;48.838;8.828;2023-05-10T08:35:10;0.90;;;0.30;;
67749;SDS011;54550;48.838;8.828;2023-05-10T08:37:35;0.90;;;0.40;;
67749;SDS011;54550;48.838;8.828;2023-05-10T08:40:01;1.50;;;0.40;;
67749;SDS011;54550;48.838;8.828;2023-05-10T08:42:28;0.70;;;0.33;;
67749;SDS011;54550;48.838;8.828;2023-05-10T08:44:55;0.70;;;0.40;;
67749;SDS011;54550;48.838;8.828;2023-05-10T08:47:22;0.70;;;0.30;;
67749;SDS011;54550;48.838;8.828;2023-05-10T08:49:48;0.70;;;0.30;;
67749;SDS011;54550;48.838;8.828;2023-05-10T08:52:16;0.70;;;0.33;;
67749;SDS011;54550;48.838;8.828;2023-05-10T08:54:42;0.70;;;0.37;;
67749;SDS011;54550;48.838;8.828;2023-05-10T08:57:08;0.80;;;0.50;;
67749;SDS011;54550;48.838;8.828;2023-05-10T08:59:35;0.80;;;0.50;;
67749;SDS011;54550;48.838;8.828;2023-05-10T09:02:03;0.70;;;0.30;;
67749;SDS011;54550;48.838;8.828;2023-05-10T09:04:30;0.70;;;0.30;;
67749;SDS011;54550;48.838;8.828;2023-05-10T09:06:56;0.80;;;0.53;;
67749;SDS011;54550;48.838;8.828;2023-05-10T09:09:22;0.90;;;0.60;;
67749;SDS011;54550;48.838;8.828;2023-05-10T09:11:49;0.70;;;0.40;;
67749;SDS011;54550;48.838;8.828;2023-05-10T09:14:14;0.70;;;0.40;;
67749;SDS011;54550;48.838;8.828;2023-05-10T09:16:40;0.70;;;0.30;;
67749;SDS011;54550;48.838;8.828;2023-05-10T09:19:06;1.53;;;0.70;;
67749;SDS011;54550;48.838;8.828;2023-05-10T09:21:34;0.70;;;0.30;;
67749;SDS011;54550;48.838;8.828;2023-05-10T09:24:03;2.80;;;0.50;;
67749;SDS011;54550;48.838;8.828;2023-05-10T09:26:30;1.30;;;0.40;;
67749;SDS011;54550;48.838;8.828;2023-05-10T09:28:56;0.80;;;0.30;;
67749;SDS011;54550;48.838;8.828;2023-05-10T09:31:24;0.70;;;0.30;;
67749;SDS011;54550;48.838;8.828;2023-05-10T09:34:07;0.70;;;0.30;;
67749;SDS011;54550;48.838;8.828;2023-05-10T09:36:33;0.80;;;0.40;;
67749;SDS011;54550;48.838;8.828;2023-05-10T09:38:58;0.80;;;0.40;;
67749;SDS011;54550;48.838;8.828;2023-05-10T09:41:25;0.70;;;0.30;;
67749;SDS011;54550;48.838;8.828;2023-05-10T09:43:50;1.13;;;0.33;;
67749;SDS011;54550;48.838;8.828;2023-05-10T09:46:21;0.70;;;0.30;;
67749;SDS011;54550;48.838;8.828;2023-05-10T09:48:47;1.33;;;0.30;;
67749;SDS011;54550;48.838;8.828;2023-05-10T09:51:20;1.33;;;0.40;;
67749;SDS011;54550;48.838;8.828;2023-05-10T09:56:38;0.70;;;0.30;;
67749;SDS011;54550;48.838;8.828;2023-05-10T09:59:05;0.70;;;0.30;;
67749;SDS011;54550;48.838;8.828;2023-05-10T10:01:31;0.70;;;0.30;;
67749;SDS011;54550;48.838;8.828;2023-05-10T10:03:58;0.70;;;0.20;;
67749;SDS011;54550;48.838;8.828;2023-05-10T10:06:24;1.10;;;0.50;;
67749;SDS011;54550;48.838;8.828;2023-05-10T10:08:50;1.00;;;0.40;;
67749;SDS011;54550;48.838;8.828;2023-05-10T10:11:16;0.70;;;0.40;;
67749;SDS011;54550;48.838;8.828;2023-05-10T10:13:42;0.80;;;0.37;;
67749;SDS011;54550;48.838;8.828;2023-05-10T10:16:08;1.00;;;0.37;;
67749;SDS011;54550;48.838;8.828;2023-05-10T10:18:34;0.70;;;0.30;;
67749;SDS011;54550;48.838;8.828;2023-05-10T10:21:04;0.70;;;0.40;;
67749;SDS011;54550;48.838;8.828;2023-05-10T10:23:34;0.70;;;0.30;;
67749;SDS011;54550;48.838;8.828;2023-05-10T10:26:00;0.80;;;0.40;;
67749;SDS011;54550;48.838;8.828;2023-05-10T10:28:36;0.70;;;0.40;;
67749;SDS011;54550;48.838;8.828;2023-05-10T10:34:22;0.70;;;0.30;;
67749;SDS011;54550;48.838;8.828;2023-05-10T10:36:52;2.40;;;0.40;;
67749;SDS011;54550;48.838;8.828;2023-05-10T10:39:18;0.80;;;0.50;;
67749;SDS011;54550;48.838;8.828;2023-05-10T10:41:50;0.70;;;0.30;;
67749;SDS011;54550;48.838;8.828;2023-05-10T10:49:37;0.80;;;0.40;;
67749;SDS011;54550;48.838;8.828;2023-05-10T10:52:13;1.80;;;0.30;;
67749;SDS011;54550;48.838;8.828;2023-05-10T10:55:05;0.80;;;0.43;;
67749;SDS011;54550;48.838;8.828;2023-05-10T11:03:06;0.90;;;0.53;;
67749;SDS011;54550;48.838;8.828;2023-05-10T11:08:06;1.27;;;0.40;;
67749;SDS011;54550;48.838;8.828;2023-05-10T11:10:35;2.97;;;0.53;;
67749;SDS011;54550;48.838;8.828;2023-05-10T11:13:05;1.00;;;0.50;;
67749;SDS011;54550;48.838;8.828;2023-05-10T11:15:35;2.93;;;0.80;;
67749;SDS011;54550;48.838;8.828;2023-05-10T11:20:59;1.63;;;0.67;;
67749;SDS011;54550;48.838;8.828;2023-05-10T11:26:11;0.97;;;0.53;;
67749;SDS011;54550;48.838;8.828;2023-05-10T11:31:09;0.97;;;0.40;;
67749;SDS011;54550;48.838;8.828;2023-05-10T11:33:44;1.00;;;0.50;;
67749;SDS011;54550;48.838;8.828;2023-05-10T11:36:14;0.70;;;0.40;;
67749;SDS011;54550;48.838;8.828;2023-05-10T11:38:42;0.70;;;0.30;;
67749;SDS011;54550;48.838;8.828;2023-05-10T11:41:08;2.90;;;0.60;;
67749;SDS011;54550;48.838;8.828;2023-05-10T11:43:35;0.97;;;0.40;;
67749;SDS011;54550;48.838;8.828;2023-05-10T11:46:03;0.90;;;0.50;;
67749;SDS011;54550;48.838;8.828;2023-05-10T11:48:30;1.73;;;0.43;;
67749;SDS011;54550;48.838;8.828;2023-05-10T11:50:56;0.80;;;0.37;;
67749;SDS011;54550;48.838;8.828;2023-05-10T11:53:22;1.00;;;0.40;;
67749;SDS011;54550;48.838;8.828;2023-05-10T11:55:50;0.70;;;0.30;;
67749;SDS011;54550;48.838;8.828;2023-05-10T11:58:17;0.70;;;0.30;;
67749;SDS011;54550;48.838;8.828;2023-05-10T12:00:43;0.70;;;0.30;;
67749;SDS011;54550;48.838;8.828;2023-05-10T12:03:10;0.80;;;0.40;;
67749;SDS011;54550;48.838;8.828;2023-05-10T12:05:36;2.87;;;0.47;;
67749;SDS011;54550;48.838;8.828;2023-05-10T12:08:21;0.80;;;0.40;;
67749;SDS011;54550;48.838;8.828;2023-05-10T12:10:48;13.23;;;0.50;;
67749;SDS011;54550;48.838;8.828;2023-05-10T12:13:14;5.07;;;0.80;;
67749;SDS011;54550;48.838;8.828;2023-05-10T12:15:40;0.70;;;0.30;;
67749;SDS011;54550;48.838;8.828;2023-05-10T12:18:10;1.57;;;0.60;;
67749;SDS011;54550;48.838;8.828;2023-05-10T12:20:36;0.70;;;0.30;;
67749;SDS011;54550;48.838;8.828;2023-05-10T12:23:02;0.70;;;0.30;;
67749;SDS011;54550;48.838;8.828;2023-05-10T12:25:32;1.20;;;0.50;;
67749;SDS011;54550;48.838;8.828;2023-05-10T12:28:00;1.10;;;0.57;;
67749;SDS011;54550;48.838;8.828;2023-05-10T12:30:29;6.13;;;0.50;;
67749;SDS011;54550;48.838;8.828;2023-05-10T12:33:02;0.80;;;0.40;;
67749;SDS011;54550;48.838;8.828;2023-05-10T12:35:33;1.17;;;0.70;;
67749;SDS011;54550;48.838;8.828;2023-05-10T12:38:24;0.70;;;0.30;;
67749;SDS011;54550;48.838;8.828;2023-05-10T12:41:09;0.70;;;0.30;;
67749;SDS011;54550;48.838;8.828;2023-05-10T12:43:37;0.70;;;0.30;;
67749;SDS011;54550;48.838;8.828;2023-05-10T12:48:32;0.70;;;0.40;;
67749;SDS011;54550;48.838;8.828;2023-05-10T12:50:59;0.70;;;0.30;;
67749;SDS011;54550;48.838;8.828;2023-05-10T12:53:25;0.70;;;0.30;;
67749;SDS011;54550;48.838;8.828;2023-05-10T12:55:50;1.00;;;0.40;;
67749;SDS011;54550;48.838;8.828;2023-05-10T12:58:16;0.80;;;0.30;;
67749;SDS011;54550;48.838;8.828;2023-05-10T13:00:42;1.00;;;0.33;;
67749;SDS011;54550;48.838;8.828;2023-05-10T13:03:08;1.00;;;0.30;;
67749;SDS011;54550;48.838;8.828;2023-05-10T13:05:34;0.70;;;0.30;;
67749;SDS011;54550;48.838;8.828;2023-05-10T13:08:00;0.90;;;0.30;;
67749;SDS011;54550;48.838;8.828;2023-05-10T13:10:26;0.80;;;0.40;;
67749;SDS011;54550;48.838;8.828;2023-05-10T13:12:52;0.80;;;0.40;;
67749;SDS011;54550;48.838;8.828;2023-05-10T13:15:18;0.70;;;0.30;;
67749;SDS011;54550;48.838;8.828;2023-05-10T13:17:43;0.80;;;0.40;;
67749;SDS011;54550;48.838;8.828;2023-05-10T13:20:10;0.70;;;0.30;;
67749;SDS011;54550;48.838;8.828;2023-05-10T13:22:36;1.10;;;0.40;;
67749;SDS011;54550;48.838;8.828;2023-05-10T13:25:02;0.80;;;0.40;;
67749;SDS011;54550;48.838;8.828;2023-05-10T13:27:28;0.70;;;0.30;;
67749;SDS011;54550;48.838;8.828;2023-05-10T13:29:53;1.07;;;0.30;;
67749;SDS011;54550;48.838;8.828;2023-05-10T13:32:19;0.80;;;0.30;;
67749;SDS011;54550;48.838;8.828;2023-05-10T13:34:45;1.00;;;0.40;;
67749;SDS011;54550;48.838;8.828;2023-05-10T13:37:11;0.70;;;0.30;;
67749;SDS011;54550;48.838;8.828;2023-05-10T13:39:37;1.23;;;0.30;;
67749;SDS011;54550;48.838;8.828;2023-05-10T13:42:02;4.53;;;0.40;;
67749;SDS011;54550;48.838;8.828;2023-05-10T13:44:29;1.20;;;0.50;;
67749;SDS011;54550;48.838;8.828;2023-05-10T13:46:55;1.53;;;0.40;;
67749;SDS011;54550;48.838;8.828;2023-05-10T13:49:21;0.80;;;0.40;;
67749;SDS011;54550;48.838;8.828;2023-05-10T13:51:47;0.70;;;0.30;;
67749;SDS011;54550;48.838;8.828;2023-05-10T13:54:12;0.80;;;0.50;;
67749;SDS011;54550;48.838;8.828;2023-05-10T13:56:38;1.57;;;0.30;;
67749;SDS011;54550;48.838;8.828;2023-05-10T13:59:04;1.97;;;0.30;;
67749;SDS011;54550;48.838;8.828;2023-05-10T14:01:30;0.87;;;0.40;;
67749;SDS011;54550;48.838;8.828;2023-05-10T14:03:56;1.43;;;0.40;;
67749;SDS011;54550;48.838;8.828;2023-05-10T14:06:21;0.80;;;0.30;;
67749;SDS011;54550;48.838;8.828;2023-05-10T14:08:47;0.83;;;0.37;;
67749;SDS011;54550;48.838;8.828;2023-05-10T14:11:12;1.40;;;0.50;;
67749;SDS011;54550;48.838;8.828;2023-05-10T14:13:38;1.67;;;0.30;;
67749;SDS011;54550;48.838;8.828;2023-05-10T14:16:04;0.80;;;0.40;;
67749;SDS011;54550;48.838;8.828;2023-05-10T14:18:29;0.70;;;0.30;;
67749;SDS011;54550;48.838;8.828;2023-05-10T14:20:55;0.70;;;0.30;;
67749;SDS011;54550;48.838;8.828;2023-05-10T14:23:21;0.80;;;0.43;;
67749;SDS011;54550;48.838;8.828;2023-05-10T14:25:51;0.70;;;0.37;;
67749;SDS011;54550;48.838;8.828;2023-05-10T14:28:17;0.80;;;0.50;;
67749;SDS011;54550;48.838;8.828;2023-05-10T14:30:43;0.80;;;0.57;;
67749;SDS011;54550;48.838;8.828;2023-05-10T14:33:09;0.70;;;0.30;;
67749;SDS011;54550;48.838;8.828;2023-05-10T14:35:35;0.90;;;0.30;;
67749;SDS011;54550;48.838;8.828;2023-05-10T14:38:01;0.80;;;0.43;;
67749;SDS011;54550;48.838;8.828;2023-05-10T14:40:28;0.70;;;0.40;;
67749;SDS011;54550;48.838;8.828;2023-05-10T14:42:54;0.80;;;0.40;;
67749;SDS011;54550;48.838;8.828;2023-05-10T14:45:20;0.80;;;0.30;;
67749;SDS011;54550;48.838;8.828;2023-05-10T14:47:46;0.80;;;0.33;;
67749;SDS011;54550;48.838;8.828;2023-05-10T14:50:11;0.70;;;0.30;;
67749;SDS011;54550;48.838;8.828;2023-05-10T14:52:37;0.70;;;0.30;;
67749;SDS011;54550;48.838;8.828;2023-05-10T14:55:02;0.70;;;0.30;;
67749;SDS011;54550;48.838;8.828;2023-05-10T14:57:28;0.80;;;0.40;;
67749;SDS011;54550;48.838;8.828;2023-05-10T14:59:54;0.70;;;0.30;;
67749;SDS011;54550;48.838;8.828;2023-05-10T15:02:21;0.70;;;0.30;;
67749;SDS011;54550;48.838;8.828;2023-05-10T15:04:47;1.47;;;0.33;;
67749;SDS011;54550;48.838;8.828;2023-05-10T15:07:12;0.90;;;0.40;;
67749;SDS011;54550;48.838;8.828;2023-05-10T15:09:40;1.17;;;0.30;;
67749;SDS011;54550;48.838;8.828;2023-05-10T15:12:05;0.70;;;0.30;;
67749;SDS011;54550;48.838;8.828;2023-05-10T15:14:31;2.30;;;0.30;;
67749;SDS011;54550;48.838;8.828;2023-05-10T15:16:57;1.40;;;0.40;;
67749;SDS011;54550;48.838;8.828;2023-05-10T15:19:24;0.70;;;0.30;;
67749;SDS011;54550;48.838;8.828;2023-05-10T15:21:49;0.70;;;0.30;;
67749;SDS011;54550;48.838;8.828;2023-05-10T15:24:15;1.10;;;0.40;;
67749;SDS011;54550;48.838;8.828;2023-05-10T15:26:40;0.80;;;0.40;;
67749;SDS011;54550;48.838;8.828;2023-05-10T15:29:06;0.73;;;0.40;;